Latest Weather Observations for Portland Airport

IDV60801

Issued at 2:02 am EDT Wednesday 1 April 2015 (issued every 30 minutes, with the page automatically refreshed every 10 minutes)

About weather observations | Map of weather stations | Latest weather observations for VIC | Other Formats
Station Details ID: 090171 Name: CASHMORE AIRPORT Lat: -38.31 Lon: 141.47 Height: 80.9 m
Data from the previous 72 hours. | See also: Recent months at Portland Airport
Date/Time
EDT
Temp
°C
App
Temp
°C
Dew
Point
Rel
Hum
%
Delta-T
°C
Wind Press
QNH
hPa
Press
MSL
hPa
Rain
since 9 am
mm
Dir
 
Spd
km/h
Gust
km/h
Spd
kts
Gust
kts
01/02:00am 13.5 13.1 12.9 96 0.3 NNE 7 11 4 6 1019.0 1018.9 0.0
01/01:30am 13.5 13.1 13.0 97 0.3 NNE 7 9 4 5 1019.4 1019.3 0.0
01/01:00am 13.5 13.1 13.0 97 0.3 NNE 7 9 4 5 1019.8 1019.7 0.0
01/12:51am 13.8 13.5 13.3 97 0.3 NNE 7 9 4 5 1020.0 1019.9 0.0
01/12:30am 13.9 13.3 13.6 98 0.2 NNE 9 11 5 6 1020.3 1020.2 0.0
01/12:24am 13.9 13.3 13.6 98 0.2 NNE 9 11 5 6 1020.4 1020.3 0.0
01/12:00am 12.4 11.9 11.9 97 0.3 NNE 6 7 3 4 1020.6 1020.5 0.0
 
Date/Time
EDT
Temp
°C
App
Temp
°C
Dew
Point
Rel
Hum
%
Delta-T
°C
Wind Press
QNH
hPa
Press
MSL
hPa
Rain
since 9 am
mm
Dir
 
Spd
km/h
Gust
km/h
Spd
kts
Gust
kts
31/11:30pm 13.7 13.4 13.2 97 0.3 NNE 7 9 4 5 1021.0 1020.9 0.0
31/11:00pm 14.2 14.0 13.6 96 0.3 NE 7 9 4 5 1021.2 1021.1 0.0
31/10:42pm 14.1 14.4 13.3 95 0.4 ENE 4 9 2 5 1021.3 1021.2 0.0
31/10:30pm 14.5 15.7 13.7 95 0.4 CALM 0 7 0 4 1021.4 1021.3 0.0
31/10:25pm 14.9 15.4 14.1 95 0.5 ENE 4 9 2 5 1021.5 1021.4 0.0
31/10:06pm 15.3 15.4 14.5 95 0.5 NE 7 13 4 7 1021.4 1021.3 0.0
31/10:00pm 15.4 15.6 14.6 95 0.5 ENE 7 13 4 7 1021.3 1021.2 0.0
31/09:30pm 14.7 14.7 13.6 93 0.6 E 6 7 3 4 1021.5 1021.4 0.0
31/09:23pm 14.4 14.6 13.1 92 0.7 E 4 7 2 4 1021.5 1021.4 0.0
31/09:00pm 14.8 14.8 13.5 92 0.7 E 6 7 3 4 1021.5 1021.4 0.0
31/08:30pm 15.1 15.1 13.5 90 0.9 E 6 9 3 5 1021.5 1021.4 0.0
31/08:00pm 15.6 15.3 13.3 86 1.3 E 7 9 4 5 1021.6 1021.5 0.0
31/07:30pm 16.9 16.6 13.2 79 2.1 SE 7 11 4 6 1021.2 1021.1 0.0
31/07:00pm 18.6 18.1 12.8 69 3.3 SSE 7 9 4 5 1021.3 1021.2 0.0
31/06:30pm 19.3 18.5 13.0 67 3.6 S 9 13 5 7 1021.3 1021.2 0.0
31/06:00pm 20.1 19.0 13.1 64 4.0 S 11 17 6 9 1021.4 1021.3 0.0
31/05:30pm 22.0 21.7 14.4 62 4.5 S 9 15 5 8 1021.2 1021.1 0.0
31/05:00pm 22.4 22.8 14.8 62 4.5 SSW 6 9 3 5 1021.3 1021.2 0.0
31/04:30pm 21.2 20.3 13.6 62 4.4 S 11 19 6 10 1021.7 1021.6 0.0
31/04:00pm 23.6 22.8 14.0 55 5.6 W 11 17 6 9 1021.8 1021.7 0.0
31/03:30pm 23.2 22.8 14.2 57 5.3 WNW 9 15 5 8 1022.1 1022.0 0.0
31/03:00pm 21.8 22.2 15.2 66 3.9 SSW 7 15 4 8 1022.4 1022.3 0.0
31/02:30pm 21.0 20.3 14.2 65 4.0 SW 11 17 6 9 1023.1 1023.0 0.0
31/02:00pm 21.3 20.7 14.5 65 4.0 SSW 11 17 6 9 1023.3 1023.2 0.0
31/01:30pm 21.8 21.3 13.9 61 4.6 WSW 9 13 5 7 1023.6 1023.5 0.0
31/01:00pm 21.9 21.3 14.5 63 4.3 NW 11 17 6 9 1024.0 1023.9 0.0
31/12:30pm 20.8 20.0 14.0 65 4.0 NW 11 17 6 9 1024.4 1024.3 0.0
31/12:00pm 18.9 17.5 13.3 70 3.2 N 13 19 7 10 1024.8 1024.7 0.0
31/11:30am 17.5 16.1 13.4 77 2.3 NNE 13 17 7 9 1025.5 1025.3 0.0
31/11:00am 17.0 16.2 13.9 82 1.8 NNE 11 15 6 8 1025.8 1025.6 0.0
31/10:30am 15.2 14.5 14.2 94 0.6 NE 11 15 6 8 1026.0 1025.9 0.0
31/10:00am 14.3 13.9 14.1 99 0.1 NNE 9 13 5 7 1026.2 1026.1 0.0
31/09:33am 13.4 12.3 13.2 99 0.1 N 11 15 6 8 1025.9 1025.7 0.0
31/09:30am 12.9 11.7 12.7 99 0.1 N 11 15 6 8 1025.9 1025.7 0.0
31/09:19am 12.5 11.1 12.3 99 0.1 N 11 15 6 8 1025.8 1025.6 0.0
31/09:00am 12.3 10.9 12.1 99 0.1 NNE 11 15 6 8 1025.5 1025.3 0.2
31/08:30am 11.5 10.2 11.3 99 0.1 N 9 13 5 7 1026.0 1025.9 0.2
31/08:00am 11.3 10.0 11.1 99 0.1 N 9 13 5 7 1025.9 1025.7 0.2
31/07:41am 11.4 10.1 11.1 98 0.2 NNE 9 11 5 6 1025.9 1025.7 0.0
31/07:30am 12.1 11.3 11.8 98 0.2 NNE 7 9 4 5 1025.9 1025.7 0.0
31/07:26am 12.1 11.3 11.8 98 0.2 NNE 7 9 4 5 1025.8 1025.6 0.0
31/07:25am 12.3 11.6 12.0 98 0.2 NNE 7 9 4 5 1025.8 1025.6 0.0
31/07:00am 13.2 12.4 13.0 99 0.1 NNE 9 13 5 7 1025.6 1025.4 0.0
31/06:30am 13.0 12.2 12.8 99 0.1 NE 9 13 5 7 1025.4 1025.2 0.0
31/06:25am 12.8 11.9 12.6 99 0.1 NNE 9 13 5 7 1025.3 1025.1 0.0
31/06:06am 12.3 11.2 12.1 99 0.1 NNE 9 13 5 7 1025.2 1025.0 0.0
31/06:01am 12.1 11.0 11.9 99 0.1 N 9 13 5 7 1025.2 1025.0 0.0
31/06:00am 12.1 11.0 11.9 99 0.1 N 9 13 5 7 1025.1 1025.0 0.0
31/05:30am 11.9 11.1 11.7 99 0.1 N 7 9 4 5 1025.2 1025.0 0.0
31/05:00am 11.1 10.2 10.8 98 0.2 NNW 6 7 3 4 1025.2 1025.0 0.0
31/04:30am 10.4 9.3 10.1 98 0.2 NW 6 9 3 5 1025.0 1024.9 0.0
31/04:13am 9.5 8.6 9.2 98 0.1 NW 4 6 2 3 1025.3 1025.1 0.0
31/04:00am 10.2 9.8 9.9 98 0.2 NW 2 6 1 3 1025.3 1025.1 0.0
31/03:53am 10.4 10.5 10.1 98 0.2 CALM 0 0 0 0 1025.4 1025.2 0.0
31/03:42am 10.1 10.1 9.8 98 0.2 CALM 0 0 0 0 1025.6 1025.4 0.0
31/03:30am 9.9 9.8 9.6 98 0.2 CALM 0 0 0 0 1025.7 1025.5 0.0
31/03:16am 10.4 10.5 10.1 98 0.2 CALM 0 0 0 0 1025.7 1025.5 0.0
31/03:00am 11.1 11.4 10.8 98 0.2 CALM 0 0 0 0 1025.8 1025.6 0.0
31/02:30am 10.8 11.0 10.5 98 0.2 CALM 0 0 0 0 1026.1 1026.0 0.0
31/02:00am 11.2 11.5 10.9 98 0.2 CALM 0 0 0 0 1026.1 1026.0 0.0
31/01:30am 11.1 11.4 10.8 98 0.2 CALM 0 0 0 0 1026.2 1026.1 0.0
31/01:00am 11.3 11.6 11.0 98 0.2 CALM 0 0 0 0 1026.2 1026.1 0.0
31/12:30am 11.0 10.1 10.5 97 0.3 NW 6 7 3 4 1026.3 1026.2 0.0
31/12:00am 11.3 11.6 10.8 97 0.3 CALM 0 0 0 0 1026.5 1026.4 0.0
 
Date/Time
EDT
Temp
°C
App
Temp
°C
Dew
Point
Rel
Hum
%
Delta-T
°C
Wind Press
QNH
hPa
Press
MSL
hPa
Rain
since 9 am
mm
Dir
 
Spd
km/h
Gust
km/h
Spd
kts
Gust
kts
30/11:55pm 11.3 11.6 10.8 97 0.3 CALM 0 0 0 0 1026.5 1026.4 0.0
30/11:30pm 11.4 11.7 10.9 97 0.3 CALM 0 0 0 0 1026.5 1026.4 0.0
30/11:00pm 11.7 11.7 11.2 97 0.3 WSW 2 6 1 3 1026.5 1026.4 0.0
30/10:30pm 12.7 12.6 12.2 97 0.3 WSW 4 6 2 3 1026.3 1026.2 0.0
30/10:00pm 12.7 13.4 12.1 96 0.3 CALM 0 0 0 0 1026.2 1026.1 0.0
30/09:30pm 13.6 14.5 13.0 96 0.3 CALM 0 0 0 0 1026.3 1026.2 0.0
30/09:18pm 13.8 14.4 13.2 96 0.3 WSW 2 6 1 3 1026.2 1026.1 0.0
30/09:00pm 14.0 13.0 13.4 96 0.3 WSW 11 13 6 7 1026.1 1026.0 0.0
30/08:30pm 14.2 13.2 13.4 95 0.4 WSW 11 11 6 6 1025.9 1025.7 0.0
30/08:00pm 14.5 13.9 13.4 93 0.6 WSW 9 13 5 7 1025.7 1025.5 0.0
30/07:30pm 15.7 14.6 14.4 92 0.7 WSW 13 17 7 9 1025.6 1025.4 0.0
30/07:00pm 16.4 14.7 14.6 89 1.0 WSW 17 22 9 12 1025.4 1025.2 0.0
30/06:30pm 16.9 14.5 14.5 86 1.4 WSW 20 24 11 13 1025.0 1024.9 0.0
30/06:00pm 18.2 15.8 14.5 79 2.1 W 20 26 11 14 1024.8 1024.7 0.0
30/05:30pm 18.6 16.1 14.1 75 2.6 W 20 26 11 14 1024.7 1024.6 0.0
30/05:00pm 18.9 16.7 14.8 77 2.4 W 20 26 11 14 1024.4 1024.3 0.0
30/04:30pm 19.5 16.9 13.7 69 3.3 W 20 26 11 14 1024.5 1024.4 0.0
30/04:00pm 19.1 16.1 13.7 71 3.1 W 22 26 12 14 1024.4 1024.3 0.0
30/03:30pm 20.0 17.6 13.7 67 3.6 W 19 26 10 14 1024.5 1024.4 0.0
30/03:00pm 20.0 17.6 13.9 68 3.5 WNW 19 22 10 12 1024.6 1024.5 0.0
30/02:30pm 19.5 17.1 13.9 70 3.2 WNW 19 24 10 13 1024.8 1024.7 0.0
30/02:00pm 19.4 16.6 13.3 68 3.5 WNW 20 28 11 15 1025.2 1025.0 0.0
30/01:30pm 19.1 16.2 13.9 72 3.0 W 22 28 12 15 1025.3 1025.1 0.0
30/01:00pm 19.2 16.9 14.0 72 3.0 WNW 19 26 10 14 1025.4 1025.2 0.0
30/12:30pm 19.1 17.0 13.5 70 3.2 WNW 17 24 9 13 1025.3 1025.1 0.0
30/12:00pm 18.3 15.9 13.8 75 2.6 WNW 19 24 10 13 1025.4 1025.2 0.0
30/11:34am 18.0 15.6 14.5 80 2.0 W 20 24 11 13 1025.4 1025.2 0.0
30/11:30am 17.3 15.0 14.2 82 1.8 WNW 19 24 10 13 1025.5 1025.3 0.0
30/11:00am 15.8 14.3 14.3 91 0.9 W 15 22 8 12 1025.5 1025.3 0.0
30/10:30am 15.4 15.0 15.2 99 0.1 NNW 11 15 6 8 1025.3 1025.1 0.0
30/10:00am 14.6 13.9 14.4 99 0.1 N 11 15 6 8 1025.0 1024.9 0.0
30/09:48am 14.0 13.5 13.8 99 0.1 N 9 13 5 7 1025.0 1024.9 0.0
30/09:30am 13.5 12.8 13.3 99 0.1 N 9 11 5 6 1024.7 1024.6 0.0
30/09:00am 13.0 12.2 12.8 99 0.1 N 9 15 5 8 1024.4 1024.3 0.2
30/08:30am 12.8 11.9 12.6 99 0.1 N 9 13 5 7 1024.0 1023.9 0.2
30/08:00am 12.9 12.0 12.7 99 0.1 N 9 11 5 6 1023.9 1023.8 0.2
30/07:30am 13.1 12.3 12.9 99 0.1 N 9 13 5 7 1023.6 1023.5 0.2
30/07:22am 13.3 12.6 13.1 99 0.1 N 9 13 5 7 1023.4 1023.3 0.2
30/07:00am 13.4 12.7 13.2 99 0.1 NNW 9 13 5 7 1023.3 1023.2 0.2
30/06:55am 13.4 12.7 13.2 99 0.1 NNW 9 13 5 7 1023.2 1023.1 0.2
30/06:30am 13.4 12.7 13.2 99 0.1 N 9 13 5 7 1023.0 1022.9 0.2
30/06:13am 13.6 13.0 13.4 99 0.1 N 9 11 5 6 1022.9 1022.8 0.2
30/06:00am 13.5 12.8 13.3 99 0.1 N 9 11 5 6 1022.9 1022.8 0.2
30/05:30am 13.7 13.5 13.5 99 0.1 NW 7 9 4 5 1022.8 1022.7 0.2
30/05:14am 13.8 13.6 13.6 99 0.1 WNW 7 9 4 5 1022.7 1022.6 0.2
30/05:13am 13.8 13.6 13.6 99 0.1 WNW 7 9 4 5 1022.8 1022.7 0.2
30/05:00am 13.9 13.4 13.7 99 0.1 WNW 9 13 5 7 1022.8 1022.7 0.2
30/04:30am 13.9 13.0 13.7 99 0.1 WNW 11 17 6 9 1022.8 1022.7 0.2
30/04:09am 13.2 12.0 12.9 98 0.2 NW 11 13 6 7 1022.7 1022.6 0.2
30/04:00am 13.6 12.6 13.3 98 0.2 NW 11 15 6 8 1022.7 1022.6 0.2
30/03:30am 13.1 11.9 12.8 98 0.2 WNW 11 13 6 7 1022.8 1022.7 0.2
30/03:00am 14.0 13.5 13.7 98 0.2 WNW 9 11 5 6 1022.8 1022.7 0.2
30/02:30am 13.9 13.0 13.7 99 0.1 W 11 15 6 8 1023.0 1022.9 0.2
30/02:00am 14.0 13.1 13.8 99 0.1 WNW 11 15 6 8 1023.1 1023.0 0.2
30/01:50am 14.0 12.7 13.8 99 0.1 WNW 13 17 7 9 1023.1 1023.0 0.2
30/01:30am 14.0 12.7 13.8 99 0.1 WNW 13 17 7 9 1023.1 1023.0 0.2
30/01:05am 12.9 12.0 12.6 98 0.2 NW 9 11 5 6 1023.0 1022.9 0.2
30/01:00am 12.7 12.1 12.4 98 0.2 NW 7 11 4 6 1023.0 1022.9 0.2
30/12:41am 13.0 12.1 12.7 98 0.2 NW 9 11 5 6 1023.0 1022.9 0.2
30/12:30am 13.5 12.4 13.2 98 0.2 NW 11 11 6 6 1023.0 1022.9 0.2
30/12:29am 13.5 12.4 13.2 98 0.2 NW 11 11 6 6 1023.0 1022.9 0.2
30/12:00am 13.9 13.3 13.6 98 0.2 WNW 9 11 5 6 1023.1 1023.0 0.2
 
Date/Time
EDT
Temp
°C
App
Temp
°C
Dew
Point
Rel
Hum
%
Delta-T
°C
Wind Press
QNH
hPa
Press
MSL
hPa
Rain
since 9 am
mm
Dir
 
Spd
km/h
Gust
km/h
Spd
kts
Gust
kts
29/11:30pm 13.6 12.9 13.1 97 0.3 WNW 9 11 5 6 1023.3 1023.2 0.2
29/11:00pm 13.4 12.6 12.9 97 0.3 WNW 9 13 5 7 1023.4 1023.3 0.0
29/10:30pm 13.8 12.8 13.3 97 0.3 W 11 13 6 7 1023.4 1023.3 0.0
29/10:00pm 14.2 13.3 13.6 96 0.3 WNW 11 13 6 7 1023.3 1023.2 0.0
29/09:55pm 14.3 13.4 13.7 96 0.3 WNW 11 15 6 8 1023.3 1023.2 0.0
29/09:30pm 14.4 13.5 13.8 96 0.3 W 11 13 6 7 1023.3 1023.2 0.0
29/09:00pm 14.5 12.8 13.7 95 0.4 W 15 15 8 8 1023.0 1022.9 0.0
29/08:30pm 14.7 13.0 13.6 93 0.6 WSW 15 19 8 10 1022.7 1022.6 0.0
29/08:00pm 14.9 13.1 13.4 91 0.8 WSW 15 19 8 10 1022.6 1022.5 0.0
29/07:30pm 15.6 13.1 13.4 87 1.2 WSW 19 22 10 12 1022.4 1022.3 0.0
29/07:00pm 16.5 13.8 13.0 80 1.9 WSW 19 24 10 13 1022.2 1022.1 0.0
29/06:30pm 17.2 14.0 13.1 77 2.3 WSW 22 30 12 16 1021.9 1021.8 0.0
29/06:00pm 17.9 14.1 12.4 70 3.1 W 24 32 13 17 1021.7 1021.6 0.0
29/05:30pm 18.1 15.0 12.1 68 3.3 W 20 26 11 14 1021.7 1021.6 0.0
29/05:00pm 18.7 15.5 12.0 65 3.7 WSW 20 30 11 16 1021.5 1021.4 0.0
29/04:30pm 19.1 16.0 12.1 64 3.9 W 20 28 11 15 1021.4 1021.3 0.0
29/04:00pm 19.6 16.6 12.4 63 4.0 W 20 28 11 15 1021.4 1021.3 0.0
29/03:30pm 20.0 16.2 11.2 57 4.8 W 22 28 12 15 1021.5 1021.4 0.0
29/03:00pm 19.1 15.1 11.9 63 4.0 W 24 32 13 17 1021.6 1021.5 0.0
29/02:30pm 19.6 16.2 12.4 63 4.0 W 22 30 12 16 1021.7 1021.6 0.0
29/02:00pm 19.0 14.7 10.8 59 4.4 WNW 24 32 13 17 1022.0 1021.9 0.0
29/01:30pm 18.6 14.2 11.7 64 3.8 W 26 32 14 17 1022.1 1022.0 0.0
29/01:00pm 18.3 14.8 12.1 67 3.4 WNW 22 32 12 17 1022.3 1022.2 0.0
29/12:30pm 18.1 14.3 11.2 64 3.8 WNW 22 32 12 17 1022.3 1022.2 0.0
29/12:00pm 18.1 14.2 12.1 68 3.3 WNW 24 32 13 17 1022.4 1022.3 0.0
29/11:30am 17.8 14.1 11.6 67 3.4 WNW 22 30 12 16 1022.5 1022.4 0.0
29/11:00am 17.3 14.0 11.6 69 3.1 WNW 20 32 11 17 1022.6 1022.5 0.0
29/10:30am 16.5 13.7 11.4 72 2.8 NW 17 26 9 14 1022.6 1022.5 0.0
29/10:00am 15.5 13.1 11.5 77 2.2 NNW 15 19 8 10 1022.6 1022.5 0.0
29/09:30am 14.2 12.1 11.0 81 1.7 NNW 13 17 7 9 1022.3 1022.2 0.0
29/09:00am 13.0 11.3 11.1 88 1.0 NNW 11 13 6 7 1022.2 1022.1 0.2
29/08:30am 9.6 7.2 8.5 93 0.5 N 11 13 6 7 1021.9 1021.8 0.2
29/08:00am 8.6 6.0 7.8 95 0.4 NNW 11 13 6 7 1021.7 1021.6 0.2
29/07:30am 8.3 5.6 7.4 94 0.4 N 11 13 6 7 1021.4 1021.3 0.2
29/07:00am 9.7 7.3 8.6 93 0.5 N 11 15 6 8 1021.2 1021.1 0.2
29/06:30am 10.3 7.6 9.1 92 0.6 N 13 15 7 8 1021.0 1020.9 0.2
29/06:00am 9.9 7.2 9.0 94 0.4 N 13 15 7 8 1021.1 1021.0 0.2
29/05:30am 8.9 6.4 8.1 95 0.4 NNW 11 13 6 7 1020.9 1020.8 0.2
29/05:00am 8.8 6.7 8.2 96 0.3 NNW 9 9 5 5 1020.7 1020.6 0.2
29/04:30am 7.2 5.1 6.5 95 0.3 NNW 7 9 4 5 1020.7 1020.6 0.2
29/04:00am 8.5 5.9 7.7 95 0.4 NNW 11 13 6 7 1020.6 1020.5 0.2
29/03:30am 8.7 6.1 7.9 95 0.4 NNW 11 13 6 7 1020.8 1020.7 0.2
29/03:00am 8.7 6.1 7.9 95 0.4 NNW 11 13 6 7 1021.0 1020.9 0.2
29/02:30am 8.7 6.1 7.9 95 0.4 NNW 11 13 6 7 1021.0 1020.9 0.2

Other Formats:

Comma delimited format used in spreadsheet applications
http://www.bom.gov.au/fwo/IDV60801/IDV60801.94828.axf

JavaScript Object Notation format (JSON) in row-major order
http://www.bom.gov.au/fwo/IDV60801/IDV60801.94828.json